GMTA Airport Information

Runway Information
Runway 18 Length 8202 ft width 148 ft
Elevation 21 ft Threshold 0 ft Heading 173
Runway 36 Length 8202 ft Width 148 ft
Elevation 96 ft Threshold 0 ft Heading 353
Airport Frequencies
Type TWR Name AL HOCEIMA Frequency 118.7 MHZ
Airport Navaids
Type VOR-DME Name Al Hoceima Frequency 115000 KHZ
Type NDB Name Al Hoceima Frequency 401 KHZ
Airport Weather Information & NOTAM
ADDS - METARS form results

(0210 UTC 23 January 2022)
Data provider http://aviationweather.gov/metar/data/
 
METAR text: GMTA 230200Z 18003KT 120V220 CAVOK 07/04 Q1024 NOSIG
Conditions at: GMTA (AL HOCEIMA/COTE , MA) observed 0200 UTC 23 January 2022
Temperature: 7.0°C (45°F)
Dewpoint: 4.0°C (39°F) [RH = 81%]
Pressure (altimeter): 30.24 inches Hg (1024.0 mb)
Winds: from the S (180 degrees) at 3 MPH (3 knots; 1.5 m/s)
Visibility: 6 or more miles (10+ km)
Ceiling: ceiling and visibility are OK
Clouds: unknown
Weather: no significant weather observed at this time

Forecast for: GMTA (AL HOCEIMA/COTE , MA)
Text: TAF GMTA 222300Z 2300/2406 VRB01KT CAVOK
Forecast period: 0000 UTC 23 January 2022 to 0600 UTC 24 January 2022
Forecast type: FROM: standard forecast or significant change
Winds: variable direction winds at 1 MPH (1 knots; 0.5 m/s)
Visibility: 6 or more miles (10+ km)
Ceiling: unknown
Clouds: missing
Weather: NSW  (no significant weather)